sensor_id;sensor_type;location;lat;lon;timestamp;temperature;humidity
1083;DHT22;530;51.448;7.238;2022-10-24T00:01:50;16.40;99.90
1083;DHT22;530;51.448;7.238;2022-10-24T00:04:16;16.50;99.90
1083;DHT22;530;51.448;7.238;2022-10-24T00:06:42;16.50;99.90
1083;DHT22;530;51.448;7.238;2022-10-24T00:09:07;16.50;99.90
1083;DHT22;530;51.448;7.238;2022-10-24T00:11:34;16.50;99.90
1083;DHT22;530;51.448;7.238;2022-10-24T00:13:59;16.50;99.90
1083;DHT22;530;51.448;7.238;2022-10-24T00:16:26;16.50;99.90
1083;DHT22;530;51.448;7.238;2022-10-24T00:18:52;16.50;99.90
1083;DHT22;530;51.448;7.238;2022-10-24T00:21:18;16.50;99.90
1083;DHT22;530;51.448;7.238;2022-10-24T00:23:44;16.50;99.90
1083;DHT22;530;51.448;7.238;2022-10-24T00:26:11;16.50;99.90
1083;DHT22;530;51.448;7.238;2022-10-24T00:28:37;16.50;99.90
1083;DHT22;530;51.448;7.238;2022-10-24T00:31:04;16.50;99.90
1083;DHT22;530;51.448;7.238;2022-10-24T00:33:31;16.60;99.90
1083;DHT22;530;51.448;7.238;2022-10-24T00:35:56;16.60;99.90
1083;DHT22;530;51.448;7.238;2022-10-24T00:38:22;16.50;99.90
1083;DHT22;530;51.448;7.238;2022-10-24T00:40:48;16.50;99.90
1083;DHT22;530;51.448;7.238;2022-10-24T00:43:19;16.50;99.90
1083;DHT22;530;51.448;7.238;2022-10-24T00:45:51;16.50;99.90
1083;DHT22;530;51.448;7.238;2022-10-24T00:50:57;16.60;99.90
1083;DHT22;530;51.448;7.238;2022-10-24T00:53:24;16.60;99.90
1083;DHT22;530;51.448;7.238;2022-10-24T00:55:54;16.70;99.90
1083;DHT22;530;51.448;7.238;2022-10-24T00:58:22;16.70;99.90
1083;DHT22;530;51.448;7.238;2022-10-24T01:00:50;16.70;99.90
1083;DHT22;530;51.448;7.238;2022-10-24T01:03:16;16.70;99.90
1083;DHT22;530;51.448;7.238;2022-10-24T01:08:44;16.70;99.90
1083;DHT22;530;51.448;7.238;2022-10-24T01:14:11;16.80;99.90
1083;DHT22;530;51.448;7.238;2022-10-24T01:16:47;16.80;99.90
1083;DHT22;530;51.448;7.238;2022-10-24T01:22:20;16.90;99.90
1083;DHT22;530;51.448;7.238;2022-10-24T01:30:05;16.90;99.90
1083;DHT22;530;51.448;7.238;2022-10-24T01:33:01;17.00;99.90
1083;DHT22;530;51.448;7.238;2022-10-24T01:36:09;17.00;99.90
1083;DHT22;530;51.448;7.238;2022-10-24T01:38:41;17.00;99.90
1083;DHT22;530;51.448;7.238;2022-10-24T01:41:16;17.10;99.90
1083;DHT22;530;51.448;7.238;2022-10-24T01:43:52;17.10;99.90
1083;DHT22;530;51.448;7.238;2022-10-24T01:46:23;17.10;99.90
1083;DHT22;530;51.448;7.238;2022-10-24T01:48:55;17.10;99.90
1083;DHT22;530;51.448;7.238;2022-10-24T01:51:25;17.10;99.90
1083;DHT22;530;51.448;7.238;2022-10-24T01:53:53;17.20;99.90
1083;DHT22;530;51.448;7.238;2022-10-24T01:56:20;17.20;99.90
1083;DHT22;530;51.448;7.238;2022-10-24T01:58:45;17.20;99.90
1083;DHT22;530;51.448;7.238;2022-10-24T02:01:15;17.10;99.90
1083;DHT22;530;51.448;7.238;2022-10-24T02:03:47;17.20;99.90
1083;DHT22;530;51.448;7.238;2022-10-24T02:06:27;17.20;99.90
1083;DHT22;530;51.448;7.238;2022-10-24T02:09:02;17.20;99.90
1083;DHT22;530;51.448;7.238;2022-10-24T02:11:30;17.10;99.90
1083;DHT22;530;51.448;7.238;2022-10-24T02:14:07;17.10;99.90
1083;DHT22;530;51.448;7.238;2022-10-24T02:16:34;17.10;99.90
1083;DHT22;530;51.448;7.238;2022-10-24T02:18:59;17.10;99.90
1083;DHT22;530;51.448;7.238;2022-10-24T02:21:47;17.20;99.90
1083;DHT22;530;51.448;7.238;2022-10-24T02:24:26;17.10;99.90
1083;DHT22;530;51.448;7.238;2022-10-24T02:29:57;17.20;99.90
1083;DHT22;530;51.448;7.238;2022-10-24T02:32:32;17.20;99.90
1083;DHT22;530;51.448;7.238;2022-10-24T02:35:00;17.10;99.90
1083;DHT22;530;51.448;7.238;2022-10-24T02:37:28;17.10;99.90
1083;DHT22;530;51.448;7.238;2022-10-24T02:39:55;17.10;99.90
1083;DHT22;530;51.448;7.238;2022-10-24T02:42:23;17.20;99.90
1083;DHT22;530;51.448;7.238;2022-10-24T02:44:49;17.20;99.90
1083;DHT22;530;51.448;7.238;2022-10-24T02:47:17;17.20;99.90
1083;DHT22;530;51.448;7.238;2022-10-24T02:49:43;17.30;99.90
1083;DHT22;530;51.448;7.238;2022-10-24T02:52:09;17.30;99.90
1083;DHT22;530;51.448;7.238;2022-10-24T02:54:35;17.30;99.90
1083;DHT22;530;51.448;7.238;2022-10-24T02:57:03;17.30;99.90
1083;DHT22;530;51.448;7.238;2022-10-24T02:59:29;17.20;99.90
1083;DHT22;530;51.448;7.238;2022-10-24T03:01:55;17.30;99.90
1083;DHT22;530;51.448;7.238;2022-10-24T03:04:20;17.30;99.90
1083;DHT22;530;51.448;7.238;2022-10-24T03:06:46;17.30;99.90
1083;DHT22;530;51.448;7.238;2022-10-24T03:09:12;17.40;99.90
1083;DHT22;530;51.448;7.238;2022-10-24T03:11:38;17.40;99.90
1083;DHT22;530;51.448;7.238;2022-10-24T03:14:04;17.40;99.90
1083;DHT22;530;51.448;7.238;2022-10-24T03:16:30;17.40;99.90
1083;DHT22;530;51.448;7.238;2022-10-24T03:18:56;17.50;99.90
1083;DHT22;530;51.448;7.238;2022-10-24T03:21:21;17.50;99.90
1083;DHT22;530;51.448;7.238;2022-10-24T03:23:48;17.50;99.90
1083;DHT22;530;51.448;7.238;2022-10-24T03:26:13;17.50;99.90
1083;DHT22;530;51.448;7.238;2022-10-24T03:28:39;17.50;99.90
1083;DHT22;530;51.448;7.238;2022-10-24T03:31:05;17.50;99.90
1083;DHT22;530;51.448;7.238;2022-10-24T03:33:30;17.50;99.90
1083;DHT22;530;51.448;7.238;2022-10-24T03:35:56;17.50;99.90
1083;DHT22;530;51.448;7.238;2022-10-24T03:38:22;17.50;99.90
1083;DHT22;530;51.448;7.238;2022-10-24T03:40:48;17.50;99.90
1083;DHT22;530;51.448;7.238;2022-10-24T03:43:14;17.50;99.90
1083;DHT22;530;51.448;7.238;2022-10-24T03:45:40;17.50;99.90
1083;DHT22;530;51.448;7.238;2022-10-24T03:48:06;17.40;99.90
1083;DHT22;530;51.448;7.238;2022-10-24T03:50:32;17.40;99.90
1083;DHT22;530;51.448;7.238;2022-10-24T03:52:59;17.40;99.90
1083;DHT22;530;51.448;7.238;2022-10-24T03:55:26;17.40;99.90
1083;DHT22;530;51.448;7.238;2022-10-24T03:57:52;17.40;99.90
1083;DHT22;530;51.448;7.238;2022-10-24T04:00:18;17.40;99.90
1083;DHT22;530;51.448;7.238;2022-10-24T04:02:44;17.40;99.90
1083;DHT22;530;51.448;7.238;2022-10-24T04:05:10;17.40;99.90
1083;DHT22;530;51.448;7.238;2022-10-24T04:07:36;17.40;99.90
1083;DHT22;530;51.448;7.238;2022-10-24T04:10:03;17.40;99.90
1083;DHT22;530;51.448;7.238;2022-10-24T04:12:28;17.40;99.90
1083;DHT22;530;51.448;7.238;2022-10-24T04:14:54;17.30;99.90
1083;DHT22;530;51.448;7.238;2022-10-24T04:17:20;17.20;99.90
1083;DHT22;530;51.448;7.238;2022-10-24T04:19:45;17.30;99.90
1083;DHT22;530;51.448;7.238;2022-10-24T04:22:11;17.30;99.90
1083;DHT22;530;51.448;7.238;2022-10-24T04:24:37;17.20;99.90
1083;DHT22;530;51.448;7.238;2022-10-24T04:27:05;17.30;99.90
1083;DHT22;530;51.448;7.238;2022-10-24T04:29:30;17.30;99.90
1083;DHT22;530;51.448;7.238;2022-10-24T04:31:56;17.30;99.90
1083;DHT22;530;51.448;7.238;2022-10-24T04:34:22;17.20;99.90
1083;DHT22;530;51.448;7.238;2022-10-24T04:36:47;17.20;99.90
1083;DHT22;530;51.448;7.238;2022-10-24T04:39:13;17.20;99.90
1083;DHT22;530;51.448;7.238;2022-10-24T04:41:39;17.20;99.90
1083;DHT22;530;51.448;7.238;2022-10-24T04:44:04;17.30;99.90
1083;DHT22;530;51.448;7.238;2022-10-24T04:46:30;17.20;99.90
1083;DHT22;530;51.448;7.238;2022-10-24T04:48:56;17.20;99.90
1083;DHT22;530;51.448;7.238;2022-10-24T04:51:22;17.20;99.90
1083;DHT22;530;51.448;7.238;2022-10-24T04:53:48;17.20;99.90
1083;DHT22;530;51.448;7.238;2022-10-24T04:56:14;17.20;99.90
1083;DHT22;530;51.448;7.238;2022-10-24T04:58:39;17.10;99.90
1083;DHT22;530;51.448;7.238;2022-10-24T05:01:05;17.10;99.90
1083;DHT22;530;51.448;7.238;2022-10-24T05:03:30;17.10;99.90
1083;DHT22;530;51.448;7.238;2022-10-24T05:05:56;17.10;99.90
1083;DHT22;530;51.448;7.238;2022-10-24T05:08:22;17.10;99.90
1083;DHT22;530;51.448;7.238;2022-10-24T05:10:48;17.10;99.90
1083;DHT22;530;51.448;7.238;2022-10-24T05:13:13;17.10;99.90
1083;DHT22;530;51.448;7.238;2022-10-24T05:15:39;17.10;99.90
1083;DHT22;530;51.448;7.238;2022-10-24T05:18:05;17.10;99.90
1083;DHT22;530;51.448;7.238;2022-10-24T05:20:31;17.10;99.90
1083;DHT22;530;51.448;7.238;2022-10-24T05:22:56;17.10;99.90
1083;DHT22;530;51.448;7.238;2022-10-24T05:25:22;17.00;99.90
1083;DHT22;530;51.448;7.238;2022-10-24T05:27:48;17.00;99.90
1083;DHT22;530;51.448;7.238;2022-10-24T05:30:14;17.00;99.90
1083;DHT22;530;51.448;7.238;2022-10-24T05:32:40;17.00;99.90
1083;DHT22;530;51.448;7.238;2022-10-24T05:35:06;17.00;99.90
1083;DHT22;530;51.448;7.238;2022-10-24T05:37:32;17.00;99.90
1083;DHT22;530;51.448;7.238;2022-10-24T05:39:58;17.00;99.90
1083;DHT22;530;51.448;7.238;2022-10-24T05:42:23;17.00;99.90
1083;DHT22;530;51.448;7.238;2022-10-24T05:44:49;16.90;99.90
1083;DHT22;530;51.448;7.238;2022-10-24T05:47:15;16.90;99.90
1083;DHT22;530;51.448;7.238;2022-10-24T05:49:40;16.90;99.90
1083;DHT22;530;51.448;7.238;2022-10-24T05:52:06;16.90;99.90
1083;DHT22;530;51.448;7.238;2022-10-24T05:54:32;16.90;99.90
1083;DHT22;530;51.448;7.238;2022-10-24T05:56:57;16.90;99.90
1083;DHT22;530;51.448;7.238;2022-10-24T05:59:23;16.90;99.90
1083;DHT22;530;51.448;7.238;2022-10-24T06:01:49;16.90;99.90
1083;DHT22;530;51.448;7.238;2022-10-24T06:04:14;16.90;99.90
1083;DHT22;530;51.448;7.238;2022-10-24T06:06:42;16.90;99.90
1083;DHT22;530;51.448;7.238;2022-10-24T06:09:09;16.90;99.90
1083;DHT22;530;51.448;7.238;2022-10-24T06:11:35;16.90;99.90
1083;DHT22;530;51.448;7.238;2022-10-24T06:14:02;16.90;99.90
1083;DHT22;530;51.448;7.238;2022-10-24T06:16:27;16.90;99.90
1083;DHT22;530;51.448;7.238;2022-10-24T06:18:55;16.80;99.90
1083;DHT22;530;51.448;7.238;2022-10-24T06:21:21;16.80;99.90
1083;DHT22;530;51.448;7.238;2022-10-24T06:23:47;16.90;99.90
1083;DHT22;530;51.448;7.238;2022-10-24T06:26:13;16.90;99.90
1083;DHT22;530;51.448;7.238;2022-10-24T06:28:39;16.90;99.90
1083;DHT22;530;51.448;7.238;2022-10-24T06:31:06;16.90;99.90
1083;DHT22;530;51.448;7.238;2022-10-24T06:33:32;16.80;99.90
1083;DHT22;530;51.448;7.238;2022-10-24T06:35:59;16.90;99.90
1083;DHT22;530;51.448;7.238;2022-10-24T06:38:25;16.90;99.90
1083;DHT22;530;51.448;7.238;2022-10-24T06:40:51;16.80;99.90
1083;DHT22;530;51.448;7.238;2022-10-24T06:43:17;16.80;99.90
1083;DHT22;530;51.448;7.238;2022-10-24T06:45:44;16.90;99.90
1083;DHT22;530;51.448;7.238;2022-10-24T06:48:10;16.90;99.90
1083;DHT22;530;51.448;7.238;2022-10-24T06:50:37;16.90;99.90
1083;DHT22;530;51.448;7.238;2022-10-24T06:53:08;16.90;99.90
1083;DHT22;530;51.448;7.238;2022-10-24T06:55:36;16.90;99.90
1083;DHT22;530;51.448;7.238;2022-10-24T06:58:02;16.90;99.90
1083;DHT22;530;51.448;7.238;2022-10-24T07:00:29;16.90;99.90
1083;DHT22;530;51.448;7.238;2022-10-24T07:02:54;16.90;99.90
1083;DHT22;530;51.448;7.238;2022-10-24T07:05:20;16.90;99.90
1083;DHT22;530;51.448;7.238;2022-10-24T07:07:46;16.90;99.90
1083;DHT22;530;51.448;7.238;2022-10-24T07:10:12;16.90;99.90
1083;DHT22;530;51.448;7.238;2022-10-24T07:12:39;16.90;99.90
1083;DHT22;530;51.448;7.238;2022-10-24T07:15:05;16.90;99.90
1083;DHT22;530;51.448;7.238;2022-10-24T07:17:36;16.90;99.90
1083;DHT22;530;51.448;7.238;2022-10-24T07:20:02;16.90;99.90
1083;DHT22;530;51.448;7.238;2022-10-24T07:22:28;17.00;99.90
1083;DHT22;530;51.448;7.238;2022-10-24T07:24:54;17.10;99.90
1083;DHT22;530;51.448;7.238;2022-10-24T07:27:21;17.10;99.90
1083;DHT22;530;51.448;7.238;2022-10-24T07:29:47;17.20;99.90
1083;DHT22;530;51.448;7.238;2022-10-24T07:32:13;17.20;99.90
1083;DHT22;530;51.448;7.238;2022-10-24T07:34:39;17.30;99.90
1083;DHT22;530;51.448;7.238;2022-10-24T07:37:05;17.30;99.90
1083;DHT22;530;51.448;7.238;2022-10-24T07:39:31;17.30;99.90
1083;DHT22;530;51.448;7.238;2022-10-24T07:41:57;17.40;99.90
1083;DHT22;530;51.448;7.238;2022-10-24T07:44:23;17.50;99.90
1083;DHT22;530;51.448;7.238;2022-10-24T07:46:48;17.60;99.90
1083;DHT22;530;51.448;7.238;2022-10-24T07:49:14;17.70;99.90
1083;DHT22;530;51.448;7.238;2022-10-24T07:51:41;17.80;99.90
1083;DHT22;530;51.448;7.238;2022-10-24T07:54:07;17.80;99.90
1083;DHT22;530;51.448;7.238;2022-10-24T07:56:33;17.80;99.90
1083;DHT22;530;51.448;7.238;2022-10-24T07:58:59;18.10;99.90
1083;DHT22;530;51.448;7.238;2022-10-24T08:01:26;18.20;99.90
1083;DHT22;530;51.448;7.238;2022-10-24T08:03:53;18.30;99.90
1083;DHT22;530;51.448;7.238;2022-10-24T08:06:21;18.30;99.90
1083;DHT22;530;51.448;7.238;2022-10-24T08:08:47;18.10;99.90
1083;DHT22;530;51.448;7.238;2022-10-24T08:11:15;18.00;99.90
1083;DHT22;530;51.448;7.238;2022-10-24T08:13:41;18.00;99.90
1083;DHT22;530;51.448;7.238;2022-10-24T08:16:09;18.00;99.90
1083;DHT22;530;51.448;7.238;2022-10-24T08:18:36;18.10;99.90
1083;DHT22;530;51.448;7.238;2022-10-24T08:21:04;18.10;99.90
1083;DHT22;530;51.448;7.238;2022-10-24T08:23:31;18.10;99.90
1083;DHT22;530;51.448;7.238;2022-10-24T08:25:57;18.20;99.90
1083;DHT22;530;51.448;7.238;2022-10-24T08:28:23;18.10;99.90
1083;DHT22;530;51.448;7.238;2022-10-24T08:30:59;18.10;99.90
1083;DHT22;530;51.448;7.238;2022-10-24T08:33:25;18.00;99.90
1083;DHT22;530;51.448;7.238;2022-10-24T08:35:53;18.10;99.90
1083;DHT22;530;51.448;7.238;2022-10-24T08:38:21;18.10;99.90
1083;DHT22;530;51.448;7.238;2022-10-24T08:40:47;18.10;99.90
1083;DHT22;530;51.448;7.238;2022-10-24T08:43:14;18.20;99.90
1083;DHT22;530;51.448;7.238;2022-10-24T08:48:40;18.20;99.90
1083;DHT22;530;51.448;7.238;2022-10-24T08:51:53;18.10;99.90
1083;DHT22;530;51.448;7.238;2022-10-24T08:54:19;18.00;99.90
1083;DHT22;530;51.448;7.238;2022-10-24T08:56:47;17.90;99.90
1083;DHT22;530;51.448;7.238;2022-10-24T08:59:13;17.90;99.90
1083;DHT22;530;51.448;7.238;2022-10-24T09:01:49;17.90;99.90
1083;DHT22;530;51.448;7.238;2022-10-24T09:04:18;17.80;99.90
1083;DHT22;530;51.448;7.238;2022-10-24T09:06:46;17.80;99.90
1083;DHT22;530;51.448;7.238;2022-10-24T09:09:26;17.70;99.90
1083;DHT22;530;51.448;7.238;2022-10-24T09:11:54;17.60;99.90
1083;DHT22;530;51.448;7.238;2022-10-24T09:14:32;17.60;99.90
1083;DHT22;530;51.448;7.238;2022-10-24T09:17:01;17.60;99.90
1083;DHT22;530;51.448;7.238;2022-10-24T09:19:29;17.60;99.90
1083;DHT22;530;51.448;7.238;2022-10-24T09:21:56;17.60;99.90
1083;DHT22;530;51.448;7.238;2022-10-24T09:24:46;17.50;99.90
1083;DHT22;530;51.448;7.238;2022-10-24T09:27:19;17.50;99.90
1083;DHT22;530;51.448;7.238;2022-10-24T09:29:46;17.50;99.90
1083;DHT22;530;51.448;7.238;2022-10-24T09:32:18;17.50;99.90
1083;DHT22;530;51.448;7.238;2022-10-24T09:34:44;17.40;99.90
1083;DHT22;530;51.448;7.238;2022-10-24T09:40:22;17.40;99.90
1083;DHT22;530;51.448;7.238;2022-10-24T09:42:51;17.50;99.90
1083;DHT22;530;51.448;7.238;2022-10-24T09:45:39;17.50;99.90
1083;DHT22;530;51.448;7.238;2022-10-24T09:48:18;17.50;99.90
1083;DHT22;530;51.448;7.238;2022-10-24T09:50:45;17.50;99.90
1083;DHT22;530;51.448;7.238;2022-10-24T09:53:37;17.40;99.90
1083;DHT22;530;51.448;7.238;2022-10-24T09:56:12;17.40;99.90
1083;DHT22;530;51.448;7.238;2022-10-24T09:58:38;17.40;99.90
1083;DHT22;530;51.448;7.238;2022-10-24T10:03:41;17.40;99.90
1083;DHT22;530;51.448;7.238;2022-10-24T10:06:16;17.40;99.90
1083;DHT22;530;51.448;7.238;2022-10-24T10:08:52;17.40;99.90
1083;DHT22;530;51.448;7.238;2022-10-24T10:11:29;17.50;99.90
1083;DHT22;530;51.448;7.238;2022-10-24T10:13:58;17.50;99.90
1083;DHT22;530;51.448;7.238;2022-10-24T10:16:26;17.50;99.90
1083;DHT22;530;51.448;7.238;2022-10-24T10:19:15;17.50;99.90
1083;DHT22;530;51.448;7.238;2022-10-24T10:22:02;17.50;99.90
1083;DHT22;530;51.448;7.238;2022-10-24T10:27:00;17.70;99.90
1083;DHT22;530;51.448;7.238;2022-10-24T10:29:26;17.70;99.90
1083;DHT22;530;51.448;7.238;2022-10-24T10:32:18;17.70;99.90
1083;DHT22;530;51.448;7.238;2022-10-24T10:34:55;17.70;99.90
1083;DHT22;530;51.448;7.238;2022-10-24T10:50:58;17.70;99.90
1083;DHT22;530;51.448;7.238;2022-10-24T10:53:46;17.70;99.90
1083;DHT22;530;51.448;7.238;2022-10-24T11:01:53;17.70;99.90
1083;DHT22;530;51.448;7.238;2022-10-24T11:04:47;17.70;99.90
1083;DHT22;530;51.448;7.238;2022-10-24T11:07:22;17.60;99.90
1083;DHT22;530;51.448;7.238;2022-10-24T11:09:50;17.60;99.90
1083;DHT22;530;51.448;7.238;2022-10-24T11:12:25;17.60;99.90
1083;DHT22;530;51.448;7.238;2022-10-24T11:15:16;17.60;99.90
1083;DHT22;530;51.448;7.238;2022-10-24T11:17:48;17.60;99.90
1083;DHT22;530;51.448;7.238;2022-10-24T11:20:25;17.60;99.90
1083;DHT22;530;51.448;7.238;2022-10-24T11:22:54;17.60;99.90
1083;DHT22;530;51.448;7.238;2022-10-24T11:25:25;17.50;99.90
1083;DHT22;530;51.448;7.238;2022-10-24T11:31:39;17.40;99.90
1083;DHT22;530;51.448;7.238;2022-10-24T11:34:11;17.50;99.90
1083;DHT22;530;51.448;7.238;2022-10-24T11:36:59;17.50;99.90
1083;DHT22;530;51.448;7.238;2022-10-24T11:40:06;17.40;99.90
1083;DHT22;530;51.448;7.238;2022-10-24T11:42:55;17.40;99.90
1083;DHT22;530;51.448;7.238;2022-10-24T11:45:28;17.50;99.90
1083;DHT22;530;51.448;7.238;2022-10-24T11:51:19;17.50;99.90
1083;DHT22;530;51.448;7.238;2022-10-24T11:54:12;17.50;99.90
1083;DHT22;530;51.448;7.238;2022-10-24T11:59:15;17.50;99.90
1083;DHT22;530;51.448;7.238;2022-10-24T12:19:05;17.40;99.90
1083;DHT22;530;51.448;7.238;2022-10-24T12:21:38;17.40;99.90
1083;DHT22;530;51.448;7.238;2022-10-24T12:24:16;17.40;99.90
1083;DHT22;530;51.448;7.238;2022-10-24T12:26:59;17.50;99.90
1083;DHT22;530;51.448;7.238;2022-10-24T12:29:28;17.40;99.90
1083;DHT22;530;51.448;7.238;2022-10-24T12:31:56;17.40;99.90
1083;DHT22;530;51.448;7.238;2022-10-24T12:37:03;17.40;99.90
1083;DHT22;530;51.448;7.238;2022-10-24T12:39:34;17.30;99.90
1083;DHT22;530;51.448;7.238;2022-10-24T12:42:00;17.30;99.90
1083;DHT22;530;51.448;7.238;2022-10-24T12:49:45;17.20;99.90
1083;DHT22;530;51.448;7.238;2022-10-24T12:54:56;17.30;99.90
1083;DHT22;530;51.448;7.238;2022-10-24T12:57:36;17.30;99.90
1083;DHT22;530;51.448;7.238;2022-10-24T13:00:22;17.20;99.90
1083;DHT22;530;51.448;7.238;2022-10-24T13:02:51;17.20;99.90
1083;DHT22;530;51.448;7.238;2022-10-24T13:08:23;17.20;99.90
1083;DHT22;530;51.448;7.238;2022-10-24T13:19:15;17.30;99.90
1083;DHT22;530;51.448;7.238;2022-10-24T13:21:50;17.30;99.90
1083;DHT22;530;51.448;7.238;2022-10-24T13:34:56;17.70;99.90
1083;DHT22;530;51.448;7.238;2022-10-24T13:42:52;17.80;99.90
1083;DHT22;530;51.448;7.238;2022-10-24T13:45:41;17.80;99.90
1083;DHT22;530;51.448;7.238;2022-10-24T13:48:24;17.90;99.90
1083;DHT22;530;51.448;7.238;2022-10-24T13:53:30;18.00;99.90
1083;DHT22;530;51.448;7.238;2022-10-24T13:56:00;18.00;99.90
1083;DHT22;530;51.448;7.238;2022-10-24T13:58:37;18.10;99.90
1083;DHT22;530;51.448;7.238;2022-10-24T14:01:05;18.20;99.90
1083;DHT22;530;51.448;7.238;2022-10-24T14:03:33;18.20;99.90
1083;DHT22;530;51.448;7.238;2022-10-24T14:06:01;18.20;99.90
1083;DHT22;530;51.448;7.238;2022-10-24T14:08:36;18.20;99.90
1083;DHT22;530;51.448;7.238;2022-10-24T14:11:05;18.20;99.90
1083;DHT22;530;51.448;7.238;2022-10-24T14:13:35;18.20;99.90
1083;DHT22;530;51.448;7.238;2022-10-24T14:16:04;18.20;99.90
1083;DHT22;530;51.448;7.238;2022-10-24T14:18:31;18.30;99.90
1083;DHT22;530;51.448;7.238;2022-10-24T14:21:01;18.30;99.90
1083;DHT22;530;51.448;7.238;2022-10-24T14:23:32;18.20;99.90
1083;DHT22;530;51.448;7.238;2022-10-24T14:28:42;18.20;99.90
1083;DHT22;530;51.448;7.238;2022-10-24T14:31:26;18.20;99.90
1083;DHT22;530;51.448;7.238;2022-10-24T14:33:55;18.10;99.90
1083;DHT22;530;51.448;7.238;2022-10-24T14:36:26;18.10;99.90
1083;DHT22;530;51.448;7.238;2022-10-24T14:38:53;18.10;99.90
1083;DHT22;530;51.448;7.238;2022-10-24T14:41:33;18.10;99.90
1083;DHT22;530;51.448;7.238;2022-10-24T14:43:59;18.10;99.90
1083;DHT22;530;51.448;7.238;2022-10-24T14:46:38;18.10;99.90
1083;DHT22;530;51.448;7.238;2022-10-24T14:51:54;18.00;99.90
1083;DHT22;530;51.448;7.238;2022-10-24T14:54:23;18.00;99.90
1083;DHT22;530;51.448;7.238;2022-10-24T14:56:51;18.00;99.90
1083;DHT22;530;51.448;7.238;2022-10-24T14:59:27;17.90;99.90
1083;DHT22;530;51.448;7.238;2022-10-24T15:02:00;17.90;99.90
1083;DHT22;530;51.448;7.238;2022-10-24T15:04:35;17.90;99.90
1083;DHT22;530;51.448;7.238;2022-10-24T15:07:13;17.90;99.90
1083;DHT22;530;51.448;7.238;2022-10-24T15:12:32;17.80;99.90
1083;DHT22;530;51.448;7.238;2022-10-24T15:15:27;17.80;99.90
1083;DHT22;530;51.448;7.238;2022-10-24T15:18:05;17.80;99.90
1083;DHT22;530;51.448;7.238;2022-10-24T15:20:34;17.80;99.90
1083;DHT22;530;51.448;7.238;2022-10-24T15:23:01;17.70;99.90
1083;DHT22;530;51.448;7.238;2022-10-24T15:25:30;17.80;99.90
1083;DHT22;530;51.448;7.238;2022-10-24T15:27:58;17.80;99.90
1083;DHT22;530;51.448;7.238;2022-10-24T15:30:26;17.70;99.90
1083;DHT22;530;51.448;7.238;2022-10-24T15:32:54;17.70;99.90
1083;DHT22;530;51.448;7.238;2022-10-24T15:35:20;17.70;99.90
1083;DHT22;530;51.448;7.238;2022-10-24T15:38:16;17.70;99.90
1083;DHT22;530;51.448;7.238;2022-10-24T15:40:45;17.60;99.90
1083;DHT22;530;51.448;7.238;2022-10-24T15:43:18;17.60;99.90
1083;DHT22;530;51.448;7.238;2022-10-24T15:45:44;17.60;99.90
1083;DHT22;530;51.448;7.238;2022-10-24T15:48:10;17.50;99.90
1083;DHT22;530;51.448;7.238;2022-10-24T15:50:36;17.50;99.90
1083;DHT22;530;51.448;7.238;2022-10-24T15:53:09;17.50;99.90
1083;DHT22;530;51.448;7.238;2022-10-24T15:55:36;17.40;99.90
1083;DHT22;530;51.448;7.238;2022-10-24T15:58:02;17.50;99.90
1083;DHT22;530;51.448;7.238;2022-10-24T16:00:28;17.40;99.90
1083;DHT22;530;51.448;7.238;2022-10-24T16:02:56;17.40;99.90
1083;DHT22;530;51.448;7.238;2022-10-24T16:05:35;17.20;99.90
1083;DHT22;530;51.448;7.238;2022-10-24T16:08:01;17.20;99.90
1083;DHT22;530;51.448;7.238;2022-10-24T16:10:27;17.10;99.90
1083;DHT22;530;51.448;7.238;2022-10-24T16:12:52;17.10;99.90
1083;DHT22;530;51.448;7.238;2022-10-24T16:17:46;16.90;99.90
1083;DHT22;530;51.448;7.238;2022-10-24T16:20:12;16.90;99.90
1083;DHT22;530;51.448;7.238;2022-10-24T16:22:39;16.90;99.90
1083;DHT22;530;51.448;7.238;2022-10-24T16:25:06;16.80;99.90
1083;DHT22;530;51.448;7.238;2022-10-24T16:27:32;16.70;99.90
1083;DHT22;530;51.448;7.238;2022-10-24T16:29:58;16.70;99.90
1083;DHT22;530;51.448;7.238;2022-10-24T16:32:23;16.60;99.90
1083;DHT22;530;51.448;7.238;2022-10-24T16:34:49;16.50;99.90
1083;DHT22;530;51.448;7.238;2022-10-24T16:37:16;16.50;99.90
1083;DHT22;530;51.448;7.238;2022-10-24T16:39:44;16.40;99.90
1083;DHT22;530;51.448;7.238;2022-10-24T16:42:10;16.40;99.90
1083;DHT22;530;51.448;7.238;2022-10-24T16:44:35;16.40;99.90
1083;DHT22;530;51.448;7.238;2022-10-24T16:47:04;16.40;99.90
1083;DHT22;530;51.448;7.238;2022-10-24T16:49:30;16.30;99.90
1083;DHT22;530;51.448;7.238;2022-10-24T16:51:56;16.30;99.90
1083;DHT22;530;51.448;7.238;2022-10-24T16:54:23;16.30;99.90
1083;DHT22;530;51.448;7.238;2022-10-24T16:56:49;16.30;99.90
1083;DHT22;530;51.448;7.238;2022-10-24T16:59:17;16.20;99.90
1083;DHT22;530;51.448;7.238;2022-10-24T17:01:42;16.10;99.90
1083;DHT22;530;51.448;7.238;2022-10-24T17:04:08;16.00;99.90
1083;DHT22;530;51.448;7.238;2022-10-24T17:06:34;16.00;99.90
1083;DHT22;530;51.448;7.238;2022-10-24T17:09:00;16.00;99.90
1083;DHT22;530;51.448;7.238;2022-10-24T17:11:26;16.00;99.90
1083;DHT22;530;51.448;7.238;2022-10-24T17:13:52;16.00;99.90
1083;DHT22;530;51.448;7.238;2022-10-24T17:16:17;16.00;99.90
1083;DHT22;530;51.448;7.238;2022-10-24T17:18:45;15.90;99.90
1083;DHT22;530;51.448;7.238;2022-10-24T17:21:11;15.90;99.90
1083;DHT22;530;51.448;7.238;2022-10-24T17:23:39;15.90;99.90
1083;DHT22;530;51.448;7.238;2022-10-24T17:26:13;15.90;99.90
1083;DHT22;530;51.448;7.238;2022-10-24T17:28:39;15.80;99.90
1083;DHT22;530;51.448;7.238;2022-10-24T17:31:05;15.80;99.90
1083;DHT22;530;51.448;7.238;2022-10-24T17:33:31;15.80;99.90
1083;DHT22;530;51.448;7.238;2022-10-24T17:35:57;15.70;99.90
1083;DHT22;530;51.448;7.238;2022-10-24T17:38:33;15.70;99.90
1083;DHT22;530;51.448;7.238;2022-10-24T17:41:16;15.70;99.90
1083;DHT22;530;51.448;7.238;2022-10-24T17:43:45;15.80;99.90
1083;DHT22;530;51.448;7.238;2022-10-24T17:46:11;15.80;99.90
1083;DHT22;530;51.448;7.238;2022-10-24T17:48:37;15.80;99.90
1083;DHT22;530;51.448;7.238;2022-10-24T17:51:03;15.80;99.90
1083;DHT22;530;51.448;7.238;2022-10-24T17:53:29;15.90;99.90
1083;DHT22;530;51.448;7.238;2022-10-24T17:55:55;16.00;99.90
1083;DHT22;530;51.448;7.238;2022-10-24T17:58:20;16.00;99.90
1083;DHT22;530;51.448;7.238;2022-10-24T18:00:46;16.00;99.90
1083;DHT22;530;51.448;7.238;2022-10-24T18:03:12;15.90;99.90
1083;DHT22;530;51.448;7.238;2022-10-24T18:05:39;15.90;99.90
1083;DHT22;530;51.448;7.238;2022-10-24T18:08:06;15.70;99.90
1083;DHT22;530;51.448;7.238;2022-10-24T18:10:35;15.60;99.90
1083;DHT22;530;51.448;7.238;2022-10-24T18:13:01;15.70;99.90
1083;DHT22;530;51.448;7.238;2022-10-24T18:15:26;15.60;99.90
1083;DHT22;530;51.448;7.238;2022-10-24T18:17:52;15.40;99.90
1083;DHT22;530;51.448;7.238;2022-10-24T18:20:18;15.40;99.90
1083;DHT22;530;51.448;7.238;2022-10-24T18:22:44;15.40;99.90
1083;DHT22;530;51.448;7.238;2022-10-24T18:25:11;15.40;99.90
1083;DHT22;530;51.448;7.238;2022-10-24T18:27:38;15.40;99.90
1083;DHT22;530;51.448;7.238;2022-10-24T18:30:05;15.40;99.90
1083;DHT22;530;51.448;7.238;2022-10-24T18:32:32;15.40;99.90
1083;DHT22;530;51.448;7.238;2022-10-24T18:34:57;15.30;99.90
1083;DHT22;530;51.448;7.238;2022-10-24T18:37:23;15.10;99.90
1083;DHT22;530;51.448;7.238;2022-10-24T18:39:49;15.00;99.90